sensor_id;sensor_type;location;lat;lon;timestamp;temperature;humidity
53904;DHT22;39812;52.430;16.936;2023-09-19T00:00:26;18.00;99.90
53904;DHT22;39812;52.430;16.936;2023-09-19T00:02:56;17.90;99.90
53904;DHT22;39812;52.430;16.936;2023-09-19T00:05:23;17.80;99.90
53904;DHT22;39812;52.430;16.936;2023-09-19T00:07:53;17.80;99.90
53904;DHT22;39812;52.430;16.936;2023-09-19T00:10:22;17.70;99.90
53904;DHT22;39812;52.430;16.936;2023-09-19T00:12:51;17.70;99.90
53904;DHT22;39812;52.430;16.936;2023-09-19T00:15:17;17.70;99.90
53904;DHT22;39812;52.430;16.936;2023-09-19T00:17:43;17.70;99.90
53904;DHT22;39812;52.430;16.936;2023-09-19T00:20:09;17.60;99.90
53904;DHT22;39812;52.430;16.936;2023-09-19T00:22:41;17.60;99.90
53904;DHT22;39812;52.430;16.936;2023-09-19T00:25:10;17.60;99.90
53904;DHT22;39812;52.430;16.936;2023-09-19T00:27:38;17.60;99.90
53904;DHT22;39812;52.430;16.936;2023-09-19T00:30:09;17.60;99.90
53904;DHT22;39812;52.430;16.936;2023-09-19T00:32:40;17.70;99.90
53904;DHT22;39812;52.430;16.936;2023-09-19T00:35:06;17.70;99.90
53904;DHT22;39812;52.430;16.936;2023-09-19T00:37:34;17.70;99.90
53904;DHT22;39812;52.430;16.936;2023-09-19T00:40:01;17.70;99.90
53904;DHT22;39812;52.430;16.936;2023-09-19T00:42:27;17.70;99.90
53904;DHT22;39812;52.430;16.936;2023-09-19T00:44:53;17.70;99.90
53904;DHT22;39812;52.430;16.936;2023-09-19T00:47:18;17.70;99.90
53904;DHT22;39812;52.430;16.936;2023-09-19T00:49:45;17.70;99.90
53904;DHT22;39812;52.430;16.936;2023-09-19T00:52:16;17.70;99.90
53904;DHT22;39812;52.430;16.936;2023-09-19T00:54:47;17.70;99.90
53904;DHT22;39812;52.430;16.936;2023-09-19T00:57:13;17.70;99.90
53904;DHT22;39812;52.430;16.936;2023-09-19T00:59:41;17.70;99.90
53904;DHT22;39812;52.430;16.936;2023-09-19T01:02:07;17.70;99.90
53904;DHT22;39812;52.430;16.936;2023-09-19T01:04:34;17.60;99.90
53904;DHT22;39812;52.430;16.936;2023-09-19T01:06:59;17.70;99.90
53904;DHT22;39812;52.430;16.936;2023-09-19T01:09:25;17.70;99.90
53904;DHT22;39812;52.430;16.936;2023-09-19T01:11:54;17.70;99.90
53904;DHT22;39812;52.430;16.936;2023-09-19T01:16:57;17.70;99.90
53904;DHT22;39812;52.430;16.936;2023-09-19T01:22:29;17.70;99.90
53904;DHT22;39812;52.430;16.936;2023-09-19T01:28:07;17.60;99.90
53904;DHT22;39812;52.430;16.936;2023-09-19T01:30:42;17.70;99.90
53904;DHT22;39812;52.430;16.936;2023-09-19T01:33:09;17.70;99.90
53904;DHT22;39812;52.430;16.936;2023-09-19T01:35:38;17.70;99.90
53904;DHT22;39812;52.430;16.936;2023-09-19T01:38:05;17.70;99.90
53904;DHT22;39812;52.430;16.936;2023-09-19T01:40:40;17.70;99.90
53904;DHT22;39812;52.430;16.936;2023-09-19T01:43:22;17.70;99.90
53904;DHT22;39812;52.430;16.936;2023-09-19T01:46:07;17.60;99.90
53904;DHT22;39812;52.430;16.936;2023-09-19T01:48:49;17.70;99.90
53904;DHT22;39812;52.430;16.936;2023-09-19T01:51:27;17.60;99.90
53904;DHT22;39812;52.430;16.936;2023-09-19T01:54:11;17.70;99.90
53904;DHT22;39812;52.430;16.936;2023-09-19T01:57:46;17.70;99.90
53904;DHT22;39812;52.430;16.936;2023-09-19T02:00:06;17.70;99.90
53904;DHT22;39812;52.430;16.936;2023-09-19T02:02:36;17.70;99.90
53904;DHT22;39812;52.430;16.936;2023-09-19T02:05:04;17.70;99.90
53904;DHT22;39812;52.430;16.936;2023-09-19T02:07:30;17.70;99.90
53904;DHT22;39812;52.430;16.936;2023-09-19T02:09:57;17.70;99.90
53904;DHT22;39812;52.430;16.936;2023-09-19T02:12:25;17.80;99.90
53904;DHT22;39812;52.430;16.936;2023-09-19T02:14:51;17.80;99.90
53904;DHT22;39812;52.430;16.936;2023-09-19T02:17:17;17.80;99.90
53904;DHT22;39812;52.430;16.936;2023-09-19T02:19:42;17.80;99.90
53904;DHT22;39812;52.430;16.936;2023-09-19T02:22:08;17.80;99.90
53904;DHT22;39812;52.430;16.936;2023-09-19T02:24:36;17.80;99.90
53904;DHT22;39812;52.430;16.936;2023-09-19T02:27:04;17.70;99.90
53904;DHT22;39812;52.430;16.936;2023-09-19T02:29:30;17.60;99.90
53904;DHT22;39812;52.430;16.936;2023-09-19T02:31:55;17.60;99.90
53904;DHT22;39812;52.430;16.936;2023-09-19T02:34:22;17.70;99.90
53904;DHT22;39812;52.430;16.936;2023-09-19T02:36:48;17.60;99.90
53904;DHT22;39812;52.430;16.936;2023-09-19T02:39:14;17.60;99.90
53904;DHT22;39812;52.430;16.936;2023-09-19T02:41:39;17.50;99.90
53904;DHT22;39812;52.430;16.936;2023-09-19T02:44:07;17.60;99.90
53904;DHT22;39812;52.430;16.936;2023-09-19T02:46:33;17.60;99.90
53904;DHT22;39812;52.430;16.936;2023-09-19T02:48:59;17.50;99.90
53904;DHT22;39812;52.430;16.936;2023-09-19T02:51:24;17.50;99.90
53904;DHT22;39812;52.430;16.936;2023-09-19T02:53:50;17.50;99.90
53904;DHT22;39812;52.430;16.936;2023-09-19T02:56:18;17.50;99.90
53904;DHT22;39812;52.430;16.936;2023-09-19T02:58:44;17.40;99.90
53904;DHT22;39812;52.430;16.936;2023-09-19T03:01:10;17.30;99.90
53904;DHT22;39812;52.430;16.936;2023-09-19T03:03:37;17.30;99.90
53904;DHT22;39812;52.430;16.936;2023-09-19T03:06:05;17.20;99.90
53904;DHT22;39812;52.430;16.936;2023-09-19T03:08:31;17.20;99.90
53904;DHT22;39812;52.430;16.936;2023-09-19T03:10:57;17.20;99.90
53904;DHT22;39812;52.430;16.936;2023-09-19T03:13:22;17.10;99.90
53904;DHT22;39812;52.430;16.936;2023-09-19T03:15:48;17.00;99.90
53904;DHT22;39812;52.430;16.936;2023-09-19T03:18:16;17.00;99.90
53904;DHT22;39812;52.430;16.936;2023-09-19T03:20:41;16.90;99.90
53904;DHT22;39812;52.430;16.936;2023-09-19T03:23:07;16.80;99.90
53904;DHT22;39812;52.430;16.936;2023-09-19T03:25:36;16.80;99.90
53904;DHT22;39812;52.430;16.936;2023-09-19T03:28:03;16.80;99.90
53904;DHT22;39812;52.430;16.936;2023-09-19T03:30:31;16.70;99.90
53904;DHT22;39812;52.430;16.936;2023-09-19T03:32:58;16.70;99.90
53904;DHT22;39812;52.430;16.936;2023-09-19T03:35:24;16.60;99.90
53904;DHT22;39812;52.430;16.936;2023-09-19T03:37:49;16.70;99.90
53904;DHT22;39812;52.430;16.936;2023-09-19T03:40:17;16.60;99.90
53904;DHT22;39812;52.430;16.936;2023-09-19T03:42:45;16.60;99.90
53904;DHT22;39812;52.430;16.936;2023-09-19T03:45:11;16.70;99.90
53904;DHT22;39812;52.430;16.936;2023-09-19T03:47:38;16.70;99.90
53904;DHT22;39812;52.430;16.936;2023-09-19T03:50:05;16.60;99.90
53904;DHT22;39812;52.430;16.936;2023-09-19T03:52:32;16.60;99.90
53904;DHT22;39812;52.430;16.936;2023-09-19T03:54:58;16.70;99.90
53904;DHT22;39812;52.430;16.936;2023-09-19T03:57:23;16.60;99.90
53904;DHT22;39812;52.430;16.936;2023-09-19T03:59:49;16.60;99.90
53904;DHT22;39812;52.430;16.936;2023-09-19T04:02:14;16.50;99.90
53904;DHT22;39812;52.430;16.936;2023-09-19T04:04:51;16.50;99.90
53904;DHT22;39812;52.430;16.936;2023-09-19T04:07:17;16.50;99.90
53904;DHT22;39812;52.430;16.936;2023-09-19T04:09:44;16.50;99.90
53904;DHT22;39812;52.430;16.936;2023-09-19T04:12:11;16.50;99.90
53904;DHT22;39812;52.430;16.936;2023-09-19T04:14:37;16.50;99.90
53904;DHT22;39812;52.430;16.936;2023-09-19T04:17:04;16.40;99.90
53904;DHT22;39812;52.430;16.936;2023-09-19T04:19:30;16.40;99.90
53904;DHT22;39812;52.430;16.936;2023-09-19T04:21:56;16.40;99.90
53904;DHT22;39812;52.430;16.936;2023-09-19T04:24:22;16.40;99.90
53904;DHT22;39812;52.430;16.936;2023-09-19T04:26:47;16.50;99.90
53904;DHT22;39812;52.430;16.936;2023-09-19T04:29:13;16.40;99.90
53904;DHT22;39812;52.430;16.936;2023-09-19T04:31:39;16.40;99.90
53904;DHT22;39812;52.430;16.936;2023-09-19T04:34:06;16.40;99.90
53904;DHT22;39812;52.430;16.936;2023-09-19T04:36:32;16.40;99.90
53904;DHT22;39812;52.430;16.936;2023-09-19T04:38:57;16.40;99.90
53904;DHT22;39812;52.430;16.936;2023-09-19T04:41:23;16.40;99.90
53904;DHT22;39812;52.430;16.936;2023-09-19T04:43:50;16.40;99.90
53904;DHT22;39812;52.430;16.936;2023-09-19T04:46:16;16.50;99.90
53904;DHT22;39812;52.430;16.936;2023-09-19T04:48:43;16.50;99.90
53904;DHT22;39812;52.430;16.936;2023-09-19T04:51:08;16.50;99.90
53904;DHT22;39812;52.430;16.936;2023-09-19T04:53:36;16.50;99.90
53904;DHT22;39812;52.430;16.936;2023-09-19T04:56:01;16.50;99.90
53904;DHT22;39812;52.430;16.936;2023-09-19T04:58:29;16.50;99.90
53904;DHT22;39812;52.430;16.936;2023-09-19T05:00:55;16.50;99.90
53904;DHT22;39812;52.430;16.936;2023-09-19T05:03:22;16.50;99.90
53904;DHT22;39812;52.430;16.936;2023-09-19T05:05:48;16.50;99.90
53904;DHT22;39812;52.430;16.936;2023-09-19T05:08:14;16.50;99.90
53904;DHT22;39812;52.430;16.936;2023-09-19T05:10:40;16.50;99.90
53904;DHT22;39812;52.430;16.936;2023-09-19T05:13:06;16.60;99.90
53904;DHT22;39812;52.430;16.936;2023-09-19T05:15:33;16.60;99.90
53904;DHT22;39812;52.430;16.936;2023-09-19T05:17:59;16.60;99.90
53904;DHT22;39812;52.430;16.936;2023-09-19T05:20:25;16.60;99.90
53904;DHT22;39812;52.430;16.936;2023-09-19T05:23:05;16.70;99.90
53904;DHT22;39812;52.430;16.936;2023-09-19T05:25:38;16.70;99.90
53904;DHT22;39812;52.430;16.936;2023-09-19T05:28:05;16.70;99.90
53904;DHT22;39812;52.430;16.936;2023-09-19T05:30:31;16.80;99.90
53904;DHT22;39812;52.430;16.936;2023-09-19T05:32:58;16.80;99.90
53904;DHT22;39812;52.430;16.936;2023-09-19T05:35:24;16.80;99.90
53904;DHT22;39812;52.430;16.936;2023-09-19T05:37:54;16.80;99.90
53904;DHT22;39812;52.430;16.936;2023-09-19T05:40:20;16.90;99.90
53904;DHT22;39812;52.430;16.936;2023-09-19T05:42:47;16.90;99.90
53904;DHT22;39812;52.430;16.936;2023-09-19T05:45:13;16.90;99.90
53904;DHT22;39812;52.430;16.936;2023-09-19T05:47:43;16.90;99.90
53904;DHT22;39812;52.430;16.936;2023-09-19T05:50:11;17.00;99.90
53904;DHT22;39812;52.430;16.936;2023-09-19T05:52:37;17.00;99.90
53904;DHT22;39812;52.430;16.936;2023-09-19T05:55:06;17.10;99.90
53904;DHT22;39812;52.430;16.936;2023-09-19T05:57:36;17.10;99.90
53904;DHT22;39812;52.430;16.936;2023-09-19T06:00:08;17.10;99.90
53904;DHT22;39812;52.430;16.936;2023-09-19T06:02:36;17.20;99.90
53904;DHT22;39812;52.430;16.936;2023-09-19T06:05:06;17.20;99.90
53904;DHT22;39812;52.430;16.936;2023-09-19T06:07:32;17.20;99.90
53904;DHT22;39812;52.430;16.936;2023-09-19T06:10:05;17.30;99.90
53904;DHT22;39812;52.430;16.936;2023-09-19T06:12:32;17.40;99.90
53904;DHT22;39812;52.430;16.936;2023-09-19T06:15:00;17.40;99.90
53904;DHT22;39812;52.430;16.936;2023-09-19T06:17:26;17.40;99.90
53904;DHT22;39812;52.430;16.936;2023-09-19T06:19:53;17.40;99.90
53904;DHT22;39812;52.430;16.936;2023-09-19T06:22:21;17.50;99.90
53904;DHT22;39812;52.430;16.936;2023-09-19T06:24:46;17.40;99.90
53904;DHT22;39812;52.430;16.936;2023-09-19T06:27:12;17.30;99.90
53904;DHT22;39812;52.430;16.936;2023-09-19T06:29:38;17.30;99.90
53904;DHT22;39812;52.430;16.936;2023-09-19T06:32:10;17.30;99.90
53904;DHT22;39812;52.430;16.936;2023-09-19T06:34:37;17.40;99.90
53904;DHT22;39812;52.430;16.936;2023-09-19T06:37:08;17.40;99.90
53904;DHT22;39812;52.430;16.936;2023-09-19T06:39:34;17.50;99.90
53904;DHT22;39812;52.430;16.936;2023-09-19T06:41:59;17.40;99.90
53904;DHT22;39812;52.430;16.936;2023-09-19T06:44:27;17.50;99.90
53904;DHT22;39812;52.430;16.936;2023-09-19T06:46:55;17.50;99.90
53904;DHT22;39812;52.430;16.936;2023-09-19T06:49:20;17.50;99.90
53904;DHT22;39812;52.430;16.936;2023-09-19T06:51:46;17.70;99.90
53904;DHT22;39812;52.430;16.936;2023-09-19T06:54:11;17.80;99.90
53904;DHT22;39812;52.430;16.936;2023-09-19T06:56:37;17.90;99.90
53904;DHT22;39812;52.430;16.936;2023-09-19T06:59:02;18.00;99.90
53904;DHT22;39812;52.430;16.936;2023-09-19T07:01:31;18.00;99.90
53904;DHT22;39812;52.430;16.936;2023-09-19T07:03:59;17.90;99.90
53904;DHT22;39812;52.430;16.936;2023-09-19T07:06:26;17.90;99.90
53904;DHT22;39812;52.430;16.936;2023-09-19T07:08:51;18.00;99.90
53904;DHT22;39812;52.430;16.936;2023-09-19T07:11:18;18.10;99.90
53904;DHT22;39812;52.430;16.936;2023-09-19T07:13:44;18.20;99.90
53904;DHT22;39812;52.430;16.936;2023-09-19T07:16:10;18.10;99.90
53904;DHT22;39812;52.430;16.936;2023-09-19T07:18:52;18.20;99.90
53904;DHT22;39812;52.430;16.936;2023-09-19T07:21:18;18.40;99.90
53904;DHT22;39812;52.430;16.936;2023-09-19T07:23:44;18.50;99.90
53904;DHT22;39812;52.430;16.936;2023-09-19T07:26:09;18.50;99.90
53904;DHT22;39812;52.430;16.936;2023-09-19T07:28:35;18.60;99.90
53904;DHT22;39812;52.430;16.936;2023-09-19T07:31:02;18.80;99.90
53904;DHT22;39812;52.430;16.936;2023-09-19T07:33:32;18.70;99.90
53904;DHT22;39812;52.430;16.936;2023-09-19T07:35:58;18.90;99.90
53904;DHT22;39812;52.430;16.936;2023-09-19T07:38:24;18.90;99.90
53904;DHT22;39812;52.430;16.936;2023-09-19T07:40:50;18.90;99.90
53904;DHT22;39812;52.430;16.936;2023-09-19T07:43:15;19.10;99.90
53904;DHT22;39812;52.430;16.936;2023-09-19T07:45:43;19.00;99.90
53904;DHT22;39812;52.430;16.936;2023-09-19T07:48:09;19.20;99.90
53904;DHT22;39812;52.430;16.936;2023-09-19T07:50:39;19.50;99.90
53904;DHT22;39812;52.430;16.936;2023-09-19T07:53:06;19.60;99.90
53904;DHT22;39812;52.430;16.936;2023-09-19T07:55:32;19.60;99.90
53904;DHT22;39812;52.430;16.936;2023-09-19T07:57:59;19.40;99.90
53904;DHT22;39812;52.430;16.936;2023-09-19T08:00:25;19.40;99.90
53904;DHT22;39812;52.430;16.936;2023-09-19T08:02:51;19.40;99.90
53904;DHT22;39812;52.430;16.936;2023-09-19T08:05:18;19.60;99.90
53904;DHT22;39812;52.430;16.936;2023-09-19T08:07:46;19.80;99.90
53904;DHT22;39812;52.430;16.936;2023-09-19T08:10:15;19.70;99.90
53904;DHT22;39812;52.430;16.936;2023-09-19T08:12:45;19.80;99.90
53904;DHT22;39812;52.430;16.936;2023-09-19T08:15:19;20.00;99.90
53904;DHT22;39812;52.430;16.936;2023-09-19T08:17:48;19.90;99.90
53904;DHT22;39812;52.430;16.936;2023-09-19T08:20:14;20.00;99.90
53904;DHT22;39812;52.430;16.936;2023-09-19T08:22:53;19.80;99.90
53904;DHT22;39812;52.430;16.936;2023-09-19T08:25:22;20.00;99.90
53904;DHT22;39812;52.430;16.936;2023-09-19T08:27:49;20.10;99.90
53904;DHT22;39812;52.430;16.936;2023-09-19T08:30:24;20.20;99.90
53904;DHT22;39812;52.430;16.936;2023-09-19T08:32:50;20.20;99.90
53904;DHT22;39812;52.430;16.936;2023-09-19T08:35:16;20.20;99.90
53904;DHT22;39812;52.430;16.936;2023-09-19T08:37:44;20.10;99.90
53904;DHT22;39812;52.430;16.936;2023-09-19T08:40:13;20.30;99.70
53904;DHT22;39812;52.430;16.936;2023-09-19T08:45:15;20.30;99.10
53904;DHT22;39812;52.430;16.936;2023-09-19T08:47:47;20.30;98.50
53904;DHT22;39812;52.430;16.936;2023-09-19T08:50:24;20.10;98.70
53904;DHT22;39812;52.430;16.936;2023-09-19T08:52:52;20.30;98.40
53904;DHT22;39812;52.430;16.936;2023-09-19T08:55:23;20.40;98.30
53904;DHT22;39812;52.430;16.936;2023-09-19T08:58:06;20.10;97.30
53904;DHT22;39812;52.430;16.936;2023-09-19T09:00:35;20.30;96.70
53904;DHT22;39812;52.430;16.936;2023-09-19T09:03:02;20.30;96.50
53904;DHT22;39812;52.430;16.936;2023-09-19T09:05:29;20.30;95.90
53904;DHT22;39812;52.430;16.936;2023-09-19T09:07:58;20.30;95.10
53904;DHT22;39812;52.430;16.936;2023-09-19T09:10:25;20.10;95.10
53904;DHT22;39812;52.430;16.936;2023-09-19T09:12:54;20.20;95.40
53904;DHT22;39812;52.430;16.936;2023-09-19T09:15:23;20.20;94.80
53904;DHT22;39812;52.430;16.936;2023-09-19T09:17:49;19.90;95.00
53904;DHT22;39812;52.430;16.936;2023-09-19T09:20:17;19.80;95.00
53904;DHT22;39812;52.430;16.936;2023-09-19T09:22:54;19.70;95.40
53904;DHT22;39812;52.430;16.936;2023-09-19T09:25:20;19.80;95.60
53904;DHT22;39812;52.430;16.936;2023-09-19T09:28:09;20.00;95.20
53904;DHT22;39812;52.430;16.936;2023-09-19T09:30:37;19.90;94.60
53904;DHT22;39812;52.430;16.936;2023-09-19T09:33:11;20.00;93.40
53904;DHT22;39812;52.430;16.936;2023-09-19T09:35:46;19.90;94.40
53904;DHT22;39812;52.430;16.936;2023-09-19T09:38:12;19.80;94.30
53904;DHT22;39812;52.430;16.936;2023-09-19T09:40:59;19.80;94.40
53904;DHT22;39812;52.430;16.936;2023-09-19T09:43:26;20.20;94.00
53904;DHT22;39812;52.430;16.936;2023-09-19T09:46:18;19.80;93.50
53904;DHT22;39812;52.430;16.936;2023-09-19T09:48:48;19.90;93.50
53904;DHT22;39812;52.430;16.936;2023-09-19T09:51:48;20.00;93.20
53904;DHT22;39812;52.430;16.936;2023-09-19T09:54:23;20.10;92.90
53904;DHT22;39812;52.430;16.936;2023-09-19T09:56:57;20.30;92.40
53904;DHT22;39812;52.430;16.936;2023-09-19T09:59:53;20.40;92.20
53904;DHT22;39812;52.430;16.936;2023-09-19T10:02:34;20.30;92.20
53904;DHT22;39812;52.430;16.936;2023-09-19T10:05:19;20.70;91.80
53904;DHT22;39812;52.430;16.936;2023-09-19T10:08:11;20.60;91.60
53904;DHT22;39812;52.430;16.936;2023-09-19T10:10:41;20.50;90.70
53904;DHT22;39812;52.430;16.936;2023-09-19T10:13:14;20.10;91.00
53904;DHT22;39812;52.430;16.936;2023-09-19T10:15:44;20.00;91.30
53904;DHT22;39812;52.430;16.936;2023-09-19T10:18:14;19.90;91.10
53904;DHT22;39812;52.430;16.936;2023-09-19T10:20:45;20.00;90.90
53904;DHT22;39812;52.430;16.936;2023-09-19T10:23:12;20.10;90.90
53904;DHT22;39812;52.430;16.936;2023-09-19T10:25:46;20.50;90.50
53904;DHT22;39812;52.430;16.936;2023-09-19T10:28:14;20.60;89.10
53904;DHT22;39812;52.430;16.936;2023-09-19T10:30:45;20.50;90.20
53904;DHT22;39812;52.430;16.936;2023-09-19T10:33:13;20.60;89.50
53904;DHT22;39812;52.430;16.936;2023-09-19T10:35:45;20.80;89.50
53904;DHT22;39812;52.430;16.936;2023-09-19T10:38:13;21.30;89.10
53904;DHT22;39812;52.430;16.936;2023-09-19T10:40:40;21.40;87.70
53904;DHT22;39812;52.430;16.936;2023-09-19T10:43:12;21.40;84.70
53904;DHT22;39812;52.430;16.936;2023-09-19T10:45:44;21.40;85.20
53904;DHT22;39812;52.430;16.936;2023-09-19T10:48:10;21.30;86.00
53904;DHT22;39812;52.430;16.936;2023-09-19T10:50:46;21.30;86.10
53904;DHT22;39812;52.430;16.936;2023-09-19T10:53:14;21.60;85.70
53904;DHT22;39812;52.430;16.936;2023-09-19T10:55:52;22.00;84.40
53904;DHT22;39812;52.430;16.936;2023-09-19T10:58:30;22.00;80.00
53904;DHT22;39812;52.430;16.936;2023-09-19T11:01:00;21.90;76.60
53904;DHT22;39812;52.430;16.936;2023-09-19T11:03:31;21.70;78.10
53904;DHT22;39812;52.430;16.936;2023-09-19T11:06:11;21.40;75.80
53904;DHT22;39812;52.430;16.936;2023-09-19T11:09:03;21.30;77.10
53904;DHT22;39812;52.430;16.936;2023-09-19T11:11:46;21.50;77.20
53904;DHT22;39812;52.430;16.936;2023-09-19T11:30:45;22.10;75.20
53904;DHT22;39812;52.430;16.936;2023-09-19T11:33:20;21.80;76.00
53904;DHT22;39812;52.430;16.936;2023-09-19T11:36:09;21.90;76.60
53904;DHT22;39812;52.430;16.936;2023-09-19T11:39:01;21.80;76.70
53904;DHT22;39812;52.430;16.936;2023-09-19T11:41:37;22.10;76.70
53904;DHT22;39812;52.430;16.936;2023-09-19T11:49:18;22.10;76.30
53904;DHT22;39812;52.430;16.936;2023-09-19T11:51:51;22.60;75.70
53904;DHT22;39812;52.430;16.936;2023-09-19T11:54:19;23.60;73.60
53904;DHT22;39812;52.430;16.936;2023-09-19T11:56:51;24.90;68.70
53904;DHT22;39812;52.430;16.936;2023-09-19T11:59:27;26.00;67.00
53904;DHT22;39812;52.430;16.936;2023-09-19T12:02:05;26.80;64.30
53904;DHT22;39812;52.430;16.936;2023-09-19T12:04:42;26.80;63.50
53904;DHT22;39812;52.430;16.936;2023-09-19T12:07:10;26.60;63.50
53904;DHT22;39812;52.430;16.936;2023-09-19T12:09:44;25.60;63.80
53904;DHT22;39812;52.430;16.936;2023-09-19T12:12:33;25.90;63.90
53904;DHT22;39812;52.430;16.936;2023-09-19T12:14:59;26.10;63.60
53904;DHT22;39812;52.430;16.936;2023-09-19T12:17:41;27.30;62.70
53904;DHT22;39812;52.430;16.936;2023-09-19T12:20:08;28.60;60.40
53904;DHT22;39812;52.430;16.936;2023-09-19T12:25:09;28.80;58.70
53904;DHT22;39812;52.430;16.936;2023-09-19T12:27:47;30.40;57.00
53904;DHT22;39812;52.430;16.936;2023-09-19T12:30:14;30.70;55.80
53904;DHT22;39812;52.430;16.936;2023-09-19T12:32:40;30.60;55.10
53904;DHT22;39812;52.430;16.936;2023-09-19T12:35:07;32.00;54.70
53904;DHT22;39812;52.430;16.936;2023-09-19T12:37:45;30.80;52.90
53904;DHT22;39812;52.430;16.936;2023-09-19T12:40:21;30.30;53.50
53904;DHT22;39812;52.430;16.936;2023-09-19T12:42:53;29.50;53.70
53904;DHT22;39812;52.430;16.936;2023-09-19T12:45:32;30.00;53.90
53904;DHT22;39812;52.430;16.936;2023-09-19T12:48:20;30.10;53.30
53904;DHT22;39812;52.430;16.936;2023-09-19T12:51:12;29.00;52.90
53904;DHT22;39812;52.430;16.936;2023-09-19T12:53:39;27.50;54.90
53904;DHT22;39812;52.430;16.936;2023-09-19T12:56:12;27.80;56.20
53904;DHT22;39812;52.430;16.936;2023-09-19T12:58:58;29.30;54.70
53904;DHT22;39812;52.430;16.936;2023-09-19T13:01:28;28.30;54.40
53904;DHT22;39812;52.430;16.936;2023-09-19T13:04:11;27.90;55.60
53904;DHT22;39812;52.430;16.936;2023-09-19T13:06:43;29.50;54.90
53904;DHT22;39812;52.430;16.936;2023-09-19T13:09:10;29.50;53.90
53904;DHT22;39812;52.430;16.936;2023-09-19T13:11:37;29.70;53.80
53904;DHT22;39812;52.430;16.936;2023-09-19T13:14:26;30.00;53.30
53904;DHT22;39812;52.430;16.936;2023-09-19T13:17:02;29.00;54.00
53904;DHT22;39812;52.430;16.936;2023-09-19T13:19:38;29.90;53.10
53904;DHT22;39812;52.430;16.936;2023-09-19T13:22:43;31.10;53.00
53904;DHT22;39812;52.430;16.936;2023-09-19T13:25:20;28.80;53.50
53904;DHT22;39812;52.430;16.936;2023-09-19T13:27:51;28.20;56.20
53904;DHT22;39812;52.430;16.936;2023-09-19T13:30:18;28.00;56.40
53904;DHT22;39812;52.430;16.936;2023-09-19T13:32:44;28.00;56.90
53904;DHT22;39812;52.430;16.936;2023-09-19T13:35:13;28.10;57.00
53904;DHT22;39812;52.430;16.936;2023-09-19T13:37:40;27.70;55.90
53904;DHT22;39812;52.430;16.936;2023-09-19T13:40:10;27.00;57.70
53904;DHT22;39812;52.430;16.936;2023-09-19T13:42:37;26.50;57.90
53904;DHT22;39812;52.430;16.936;2023-09-19T13:45:04;25.30;60.80
53904;DHT22;39812;52.430;16.936;2023-09-19T13:47:30;24.60;63.10
53904;DHT22;39812;52.430;16.936;2023-09-19T13:49:56;24.70;63.80
53904;DHT22;39812;52.430;16.936;2023-09-19T13:52:22;24.20;64.00
53904;DHT22;39812;52.430;16.936;2023-09-19T13:54:49;24.80;64.70
53904;DHT22;39812;52.430;16.936;2023-09-19T13:57:16;25.80;63.40
53904;DHT22;39812;52.430;16.936;2023-09-19T13:59:42;26.90;60.60
53904;DHT22;39812;52.430;16.936;2023-09-19T14:02:08;25.20;62.40
53904;DHT22;39812;52.430;16.936;2023-09-19T14:04:33;26.00;63.50
53904;DHT22;39812;52.430;16.936;2023-09-19T14:07:02;26.90;61.70
53904;DHT22;39812;52.430;16.936;2023-09-19T14:09:28;26.90;61.50
53904;DHT22;39812;52.430;16.936;2023-09-19T14:11:54;26.20;61.70
53904;DHT22;39812;52.430;16.936;2023-09-19T14:14:20;25.70;62.20
53904;DHT22;39812;52.430;16.936;2023-09-19T14:16:47;25.20;63.50
53904;DHT22;39812;52.430;16.936;2023-09-19T14:19:13;24.30;64.60
53904;DHT22;39812;52.430;16.936;2023-09-19T14:21:42;24.00;66.40
53904;DHT22;39812;52.430;16.936;2023-09-19T14:24:07;24.20;65.60
53904;DHT22;39812;52.430;16.936;2023-09-19T14:26:37;24.30;64.30
53904;DHT22;39812;52.430;16.936;2023-09-19T14:29:03;24.80;61.80
53904;DHT22;39812;52.430;16.936;2023-09-19T14:31:29;25.40;59.70
53904;DHT22;39812;52.430;16.936;2023-09-19T14:33:55;26.50;57.80
53904;DHT22;39812;52.430;16.936;2023-09-19T14:36:25;26.80;57.90
53904;DHT22;39812;52.430;16.936;2023-09-19T14:38:55;27.00;57.10
53904;DHT22;39812;52.430;16.936;2023-09-19T14:41:23;26.50;57.30
53904;DHT22;39812;52.430;16.936;2023-09-19T14:43:54;25.60;58.20
53904;DHT22;39812;52.430;16.936;2023-09-19T14:46:21;25.10;59.80
53904;DHT22;39812;52.430;16.936;2023-09-19T14:48:47;24.20;60.40
53904;DHT22;39812;52.430;16.936;2023-09-19T14:51:13;23.70;61.20
53904;DHT22;39812;52.430;16.936;2023-09-19T14:53:40;23.30;61.80
53904;DHT22;39812;52.430;16.936;2023-09-19T14:56:08;22.70;62.50
53904;DHT22;39812;52.430;16.936;2023-09-19T14:58:34;22.50;62.70
53904;DHT22;39812;52.430;16.936;2023-09-19T15:01:10;22.30;63.90
53904;DHT22;39812;52.430;16.936;2023-09-19T15:03:36;21.90;63.60
53904;DHT22;39812;52.430;16.936;2023-09-19T15:06:03;21.70;64.50
53904;DHT22;39812;52.430;16.936;2023-09-19T15:08:35;21.70;64.70
53904;DHT22;39812;52.430;16.936;2023-09-19T15:11:07;21.60;65.10
53904;DHT22;39812;52.430;16.936;2023-09-19T15:13:34;21.60;65.70
53904;DHT22;39812;52.430;16.936;2023-09-19T15:16:04;21.60;65.50
53904;DHT22;39812;52.430;16.936;2023-09-19T15:18:30;21.60;66.10
53904;DHT22;39812;52.430;16.936;2023-09-19T15:21:06;21.60;65.90
53904;DHT22;39812;52.430;16.936;2023-09-19T15:23:33;21.70;65.80
53904;DHT22;39812;52.430;16.936;2023-09-19T15:26:13;21.90;65.50
53904;DHT22;39812;52.430;16.936;2023-09-19T15:28:39;21.90;64.70
53904;DHT22;39812;52.430;16.936;2023-09-19T15:31:07;22.00;65.20
53904;DHT22;39812;52.430;16.936;2023-09-19T15:33:34;22.00;65.00
53904;DHT22;39812;52.430;16.936;2023-09-19T15:36:04;21.90;65.70
53904;DHT22;39812;52.430;16.936;2023-09-19T15:38:30;21.70;65.80
53904;DHT22;39812;52.430;16.936;2023-09-19T15:40:57;21.60;66.10
53904;DHT22;39812;52.430;16.936;2023-09-19T15:43:23;21.50;66.50
53904;DHT22;39812;52.430;16.936;2023-09-19T15:45:49;21.40;66.10
53904;DHT22;39812;52.430;16.936;2023-09-19T15:48:15;21.20;66.50
53904;DHT22;39812;52.430;16.936;2023-09-19T15:50:42;21.10;66.50
53904;DHT22;39812;52.430;16.936;2023-09-19T15:53:09;21.00;67.00
53904;DHT22;39812;52.430;16.936;2023-09-19T15:55:39;21.00;67.30
53904;DHT22;39812;52.430;16.936;2023-09-19T15:58:05;20.90;67.50
53904;DHT22;39812;52.430;16.936;2023-09-19T16:00:32;21.00;66.70
53904;DHT22;39812;52.430;16.936;2023-09-19T16:03:00;20.90;67.40
53904;DHT22;39812;52.430;16.936;2023-09-19T16:05:26;20.80;67.80